Skip Navigation Links
NOAA logo - Click to go to the NOAA homepage
NOAA's National Weather Service
Alaska Aviation Weather Unit
  NWS logo - Click to go to the NWS homepage
Left Navbar Graphic     21 AKDT = 05 GMT

   
NOAA is celebrating 200 years of science, service, and stewardship. Visit the NOAA 200th celebration Web site to learn more.
USA.gov is the U.S. Government's official Web portal to all Federal, state and local government Web resources and services.
Facebook
NWS on Facebook

AAWU Home :: Display TAF Add Bookmark
METAR PAVC 270056Z AUTO 19009KT 10SM OVC036 06/01 A2957 RMK AO2
 SLP018 T00560011=

SPECI PAVC 270139Z AUTO 20011KT 10SM -RA SCT022 OVC028 05/03 A2957
 RMK AO2 RAB06 P0000=

METAR PAVC 270156Z AUTO 19008KT 10SM BKN024 OVC031 05/02 A2957 RMK
 AO2 RAB06E44 SLP020 P0000 T00500022=

SPECI PAVC 270204Z AUTO 19007KT 10SM FEW019 OVC033 06/02 A2957 RMK
 AO2=

METAR PAVC 270256Z AUTO 19008KT 10SM -RA FEW023 OVC033 06/02 A2958
 RMK AO2 RAB19 SLP023 P0000 60000 T00560017 51009=

SPECI PAVC 270315Z AUTO 21008KT 170V240 10SM BKN026 OVC033 06/02
 A2959 RMK AO2 RAE09 P0000=

SPECI PAVC 270325Z AUTO 18008KT 10SM SCT026 OVC033 06/02 A2959 RMK
 AO2 RAE09 P0000=

METAR PAVC 270356Z AUTO 17005KT 10SM OVC033 06/01 A2959 RMK AO2
 RAE09 SLP026 P0000 T00560006=

SPECI PAVC 270439Z AUTO 21009KT 10SM BKN027 OVC033 05/02 A2960 RMK
 AO2=

METAR PAVC 270456Z AUTO 14006KT 8SM -RA FEW014 BKN023 OVC029 04/01
 A2961 RMK AO2 RAB40 SLP033 P0001 T00440011=


NOAA's National Weather Service
Alaska Aviation Weather Unit
6930 Sand Lake Road
Anchorage, AK 99502-1845
Disclaimer
Credits
Glossary
Privacy Policy
About Us
Career Opportunities
Contact AAWU Internet Services Site last modified: April, 17th 2012